sensor_id;sensor_type;location;lat;lon;timestamp;pressure;altitude;pressure_sealevel;temperature;humidity
48846;BME280;34665;51.886;5.436;2022-10-16T00:00:31;100806.34;;;17.55;100.00
48846;BME280;34665;51.886;5.436;2022-10-16T00:02:56;100810.69;;;17.56;100.00
48846;BME280;34665;51.886;5.436;2022-10-16T00:05:22;100812.31;;;17.28;100.00
48846;BME280;34665;51.886;5.436;2022-10-16T00:07:47;100814.81;;;17.30;100.00
48846;BME280;34665;51.886;5.436;2022-10-16T00:10:13;100820.25;;;17.47;100.00
48846;BME280;34665;51.886;5.436;2022-10-16T00:12:38;100817.63;;;17.23;100.00
48846;BME280;34665;51.886;5.436;2022-10-16T00:15:04;100821.94;;;17.07;100.00
48846;BME280;34665;51.886;5.436;2022-10-16T00:17:31;100836.19;;;17.31;100.00
48846;BME280;34665;51.886;5.436;2022-10-16T00:19:57;100819.94;;;17.02;100.00
48846;BME280;34665;51.886;5.436;2022-10-16T00:22:23;100817.16;;;17.26;100.00
48846;BME280;34665;51.886;5.436;2022-10-16T00:24:48;100818.50;;;17.70;100.00
48846;BME280;34665;51.886;5.436;2022-10-16T00:27:14;100814.91;;;17.52;100.00
48846;BME280;34665;51.886;5.436;2022-10-16T00:29:39;100817.09;;;17.38;100.00
48846;BME280;34665;51.886;5.436;2022-10-16T00:32:05;100804.38;;;17.51;100.00
48846;BME280;34665;51.886;5.436;2022-10-16T00:34:30;100818.69;;;17.51;100.00
48846;BME280;34665;51.886;5.436;2022-10-16T00:36:56;100818.53;;;17.58;100.00
48846;BME280;34665;51.886;5.436;2022-10-16T00:39:21;100826.91;;;17.27;100.00
48846;BME280;34665;51.886;5.436;2022-10-16T00:41:48;100815.13;;;17.62;100.00
48846;BME280;34665;51.886;5.436;2022-10-16T00:44:43;100820.59;;;17.51;100.00
48846;BME280;34665;51.886;5.436;2022-10-16T00:47:11;100820.44;;;17.57;100.00
48846;BME280;34665;51.886;5.436;2022-10-16T00:49:38;100819.19;;;17.48;100.00
48846;BME280;34665;51.886;5.436;2022-10-16T00:52:05;100819.91;;;17.72;100.00
48846;BME280;34665;51.886;5.436;2022-10-16T00:54:32;100824.31;;;17.61;100.00
48846;BME280;34665;51.886;5.436;2022-10-16T00:57:01;100824.97;;;17.69;100.00
48846;BME280;34665;51.886;5.436;2022-10-16T00:59:32;100830.06;;;17.82;100.00
48846;BME280;34665;51.886;5.436;2022-10-16T01:02:01;100837.13;;;17.83;100.00
48846;BME280;34665;51.886;5.436;2022-10-16T01:04:35;100830.31;;;17.81;100.00
48846;BME280;34665;51.886;5.436;2022-10-16T01:07:36;100836.34;;;17.71;100.00
48846;BME280;34665;51.886;5.436;2022-10-16T01:15:47;100828.03;;;17.89;100.00
48846;BME280;34665;51.886;5.436;2022-10-16T01:18:49;100818.22;;;18.17;100.00
48846;BME280;34665;51.886;5.436;2022-10-16T01:21:28;100823.03;;;17.98;100.00
48846;BME280;34665;51.886;5.436;2022-10-16T01:27:21;100828.38;;;18.10;100.00
48846;BME280;34665;51.886;5.436;2022-10-16T01:30:02;100835.41;;;17.77;100.00
48846;BME280;34665;51.886;5.436;2022-10-16T01:35:15;100832.06;;;17.58;100.00
48846;BME280;34665;51.886;5.436;2022-10-16T01:37:48;100829.66;;;17.90;100.00
48846;BME280;34665;51.886;5.436;2022-10-16T01:40:18;100821.63;;;17.96;100.00
48846;BME280;34665;51.886;5.436;2022-10-16T01:42:52;100821.09;;;18.11;100.00
48846;BME280;34665;51.886;5.436;2022-10-16T01:45:19;100814.97;;;17.69;100.00
48846;BME280;34665;51.886;5.436;2022-10-16T01:47:48;100822.44;;;17.79;100.00
48846;BME280;34665;51.886;5.436;2022-10-16T01:50:16;100812.91;;;17.59;100.00
48846;BME280;34665;51.886;5.436;2022-10-16T01:52:46;100819.97;;;17.60;100.00
48846;BME280;34665;51.886;5.436;2022-10-16T01:55:17;100819.47;;;17.63;100.00
48846;BME280;34665;51.886;5.436;2022-10-16T01:57:46;100819.38;;;17.58;100.00
48846;BME280;34665;51.886;5.436;2022-10-16T02:00:14;100805.72;;;17.65;100.00
48846;BME280;34665;51.886;5.436;2022-10-16T02:02:44;100809.72;;;17.80;100.00
48846;BME280;34665;51.886;5.436;2022-10-16T02:05:16;100819.81;;;17.84;100.00
48846;BME280;34665;51.886;5.436;2022-10-16T02:07:44;100821.28;;;17.75;100.00
48846;BME280;34665;51.886;5.436;2022-10-16T02:10:10;100821.94;;;17.65;100.00
48846;BME280;34665;51.886;5.436;2022-10-16T02:12:39;100825.97;;;17.80;100.00
48846;BME280;34665;51.886;5.436;2022-10-16T02:15:08;100824.78;;;17.58;100.00
48846;BME280;34665;51.886;5.436;2022-10-16T02:17:34;100833.22;;;17.62;100.00
48846;BME280;34665;51.886;5.436;2022-10-16T02:20:01;100836.84;;;17.68;100.00
48846;BME280;34665;51.886;5.436;2022-10-16T02:22:32;100833.78;;;17.64;100.00
48846;BME280;34665;51.886;5.436;2022-10-16T02:25:15;100835.06;;;17.73;100.00
48846;BME280;34665;51.886;5.436;2022-10-16T02:30:21;100834.06;;;17.62;100.00
48846;BME280;34665;51.886;5.436;2022-10-16T02:32:50;100837.69;;;17.85;100.00
48846;BME280;34665;51.886;5.436;2022-10-16T02:35:18;100834.63;;;17.65;100.00
48846;BME280;34665;51.886;5.436;2022-10-16T02:37:46;100841.75;;;17.71;100.00
48846;BME280;34665;51.886;5.436;2022-10-16T02:40:13;100832.50;;;17.84;100.00
48846;BME280;34665;51.886;5.436;2022-10-16T02:42:40;100828.75;;;17.85;100.00
48846;BME280;34665;51.886;5.436;2022-10-16T02:45:06;100837.13;;;17.83;100.00
48846;BME280;34665;51.886;5.436;2022-10-16T02:47:33;100826.94;;;17.73;100.00
48846;BME280;34665;51.886;5.436;2022-10-16T02:49:58;100834.81;;;17.46;100.00
48846;BME280;34665;51.886;5.436;2022-10-16T02:52:24;100847.00;;;17.60;100.00
48846;BME280;34665;51.886;5.436;2022-10-16T02:54:50;100847.06;;;17.48;100.00
48846;BME280;34665;51.886;5.436;2022-10-16T02:57:15;100838.09;;;17.48;100.00
48846;BME280;34665;51.886;5.436;2022-10-16T02:59:41;100844.31;;;17.31;100.00
48846;BME280;34665;51.886;5.436;2022-10-16T03:02:06;100844.13;;;17.38;100.00
48846;BME280;34665;51.886;5.436;2022-10-16T03:04:32;100838.69;;;17.21;100.00
48846;BME280;34665;51.886;5.436;2022-10-16T03:06:57;100838.56;;;17.74;100.00
48846;BME280;34665;51.886;5.436;2022-10-16T03:09:23;100830.22;;;17.75;100.00
48846;BME280;34665;51.886;5.436;2022-10-16T03:11:48;100834.28;;;17.61;100.00
48846;BME280;34665;51.886;5.436;2022-10-16T03:14:14;100842.97;;;17.63;100.00
48846;BME280;34665;51.886;5.436;2022-10-16T03:16:39;100849.34;;;17.28;100.00
48846;BME280;34665;51.886;5.436;2022-10-16T03:19:05;100843.56;;;17.65;100.00
48846;BME280;34665;51.886;5.436;2022-10-16T03:21:30;100847.50;;;17.74;100.00
48846;BME280;34665;51.886;5.436;2022-10-16T03:23:56;100857.97;;;17.54;100.00
48846;BME280;34665;51.886;5.436;2022-10-16T03:26:22;100839.16;;;17.47;100.00
48846;BME280;34665;51.886;5.436;2022-10-16T03:28:47;100853.31;;;17.66;100.00
48846;BME280;34665;51.886;5.436;2022-10-16T03:31:13;100860.59;;;17.66;100.00
48846;BME280;34665;51.886;5.436;2022-10-16T03:33:38;100858.44;;;17.97;100.00
48846;BME280;34665;51.886;5.436;2022-10-16T03:36:03;100860.25;;;17.91;100.00
48846;BME280;34665;51.886;5.436;2022-10-16T03:38:29;100861.06;;;17.91;100.00
48846;BME280;34665;51.886;5.436;2022-10-16T03:40:55;100857.19;;;17.87;100.00
48846;BME280;34665;51.886;5.436;2022-10-16T03:43:20;100864.09;;;17.78;100.00
48846;BME280;34665;51.886;5.436;2022-10-16T03:45:45;100859.25;;;17.97;100.00
48846;BME280;34665;51.886;5.436;2022-10-16T03:48:11;100862.09;;;18.02;100.00
48846;BME280;34665;51.886;5.436;2022-10-16T03:50:37;100875.41;;;17.92;100.00
48846;BME280;34665;51.886;5.436;2022-10-16T03:53:03;100854.91;;;17.79;100.00
48846;BME280;34665;51.886;5.436;2022-10-16T03:55:28;100854.72;;;18.15;100.00
48846;BME280;34665;51.886;5.436;2022-10-16T03:57:54;100865.38;;;17.75;100.00
48846;BME280;34665;51.886;5.436;2022-10-16T04:00:19;100869.31;;;17.85;100.00
48846;BME280;34665;51.886;5.436;2022-10-16T04:02:45;100879.84;;;17.98;100.00
48846;BME280;34665;51.886;5.436;2022-10-16T04:05:10;100862.69;;;17.92;100.00
48846;BME280;34665;51.886;5.436;2022-10-16T04:07:36;100875.75;;;17.67;100.00
48846;BME280;34665;51.886;5.436;2022-10-16T04:10:02;100886.97;;;17.58;100.00
48846;BME280;34665;51.886;5.436;2022-10-16T04:12:28;100892.66;;;17.45;100.00
48846;BME280;34665;51.886;5.436;2022-10-16T04:14:53;100894.50;;;17.56;100.00
48846;BME280;34665;51.886;5.436;2022-10-16T04:17:19;100884.75;;;17.55;100.00
48846;BME280;34665;51.886;5.436;2022-10-16T04:19:44;100894.06;;;17.76;100.00
48846;BME280;34665;51.886;5.436;2022-10-16T04:22:10;100892.59;;;17.86;100.00
48846;BME280;34665;51.886;5.436;2022-10-16T04:24:35;100901.88;;;17.61;100.00
48846;BME280;34665;51.886;5.436;2022-10-16T04:27:01;100912.06;;;17.42;100.00
48846;BME280;34665;51.886;5.436;2022-10-16T04:29:26;100901.00;;;17.55;100.00
48846;BME280;34665;51.886;5.436;2022-10-16T04:31:52;100915.13;;;17.45;100.00
48846;BME280;34665;51.886;5.436;2022-10-16T04:34:18;100916.03;;;17.51;100.00
48846;BME280;34665;51.886;5.436;2022-10-16T04:36:44;100911.13;;;17.36;100.00
48846;BME280;34665;51.886;5.436;2022-10-16T04:39:11;100917.81;;;17.45;100.00
48846;BME280;34665;51.886;5.436;2022-10-16T04:41:37;100911.59;;;17.45;100.00
48846;BME280;34665;51.886;5.436;2022-10-16T04:44:02;100919.69;;;17.74;100.00
48846;BME280;34665;51.886;5.436;2022-10-16T04:46:28;100914.09;;;17.34;100.00
48846;BME280;34665;51.886;5.436;2022-10-16T04:48:53;100919.00;;;17.38;100.00
48846;BME280;34665;51.886;5.436;2022-10-16T04:51:19;100914.09;;;17.34;100.00
48846;BME280;34665;51.886;5.436;2022-10-16T04:53:47;100923.84;;;17.36;100.00
48846;BME280;34665;51.886;5.436;2022-10-16T04:56:12;100934.56;;;17.30;100.00
48846;BME280;34665;51.886;5.436;2022-10-16T04:58:37;100927.47;;;17.29;100.00
48846;BME280;34665;51.886;5.436;2022-10-16T05:01:03;100935.84;;;17.16;100.00
48846;BME280;34665;51.886;5.436;2022-10-16T05:03:28;100948.97;;;17.36;100.00
48846;BME280;34665;51.886;5.436;2022-10-16T05:05:54;100937.69;;;17.39;100.00
48846;BME280;34665;51.886;5.436;2022-10-16T05:08:19;100947.41;;;17.52;100.00
48846;BME280;34665;51.886;5.436;2022-10-16T05:10:45;100956.97;;;17.43;100.00
48846;BME280;34665;51.886;5.436;2022-10-16T05:13:11;100963.94;;;17.27;100.00
48846;BME280;34665;51.886;5.436;2022-10-16T05:15:36;100968.66;;;17.08;100.00
48846;BME280;34665;51.886;5.436;2022-10-16T05:18:02;100966.53;;;17.22;100.00
48846;BME280;34665;51.886;5.436;2022-10-16T05:20:28;100975.53;;;17.39;100.00
48846;BME280;34665;51.886;5.436;2022-10-16T05:22:53;100982.97;;;17.20;100.00
48846;BME280;34665;51.886;5.436;2022-10-16T05:25:19;100980.72;;;17.29;100.00
48846;BME280;34665;51.886;5.436;2022-10-16T05:27:48;100984.88;;;17.19;100.00
48846;BME280;34665;51.886;5.436;2022-10-16T05:30:15;100991.66;;;17.10;100.00
48846;BME280;34665;51.886;5.436;2022-10-16T05:32:41;100995.50;;;17.38;100.00
48846;BME280;34665;51.886;5.436;2022-10-16T05:35:07;101002.56;;;17.15;100.00
48846;BME280;34665;51.886;5.436;2022-10-16T05:37:33;101004.59;;;17.20;100.00
48846;BME280;34665;51.886;5.436;2022-10-16T05:39:58;101008.94;;;17.09;100.00
48846;BME280;34665;51.886;5.436;2022-10-16T05:42:23;101006.47;;;17.08;100.00
48846;BME280;34665;51.886;5.436;2022-10-16T05:44:49;101014.69;;;17.13;100.00
48846;BME280;34665;51.886;5.436;2022-10-16T05:47:15;101013.16;;;17.17;100.00
48846;BME280;34665;51.886;5.436;2022-10-16T05:49:40;101014.91;;;17.23;100.00
48846;BME280;34665;51.886;5.436;2022-10-16T05:52:06;101011.03;;;17.19;100.00
48846;BME280;34665;51.886;5.436;2022-10-16T05:54:31;101018.19;;;17.25;100.00
48846;BME280;34665;51.886;5.436;2022-10-16T05:56:57;101015.63;;;17.06;100.00
48846;BME280;34665;51.886;5.436;2022-10-16T05:59:22;101020.81;;;17.20;100.00
48846;BME280;34665;51.886;5.436;2022-10-16T06:01:48;101019.75;;;17.09;100.00
48846;BME280;34665;51.886;5.436;2022-10-16T06:04:14;101021.16;;;17.24;100.00
48846;BME280;34665;51.886;5.436;2022-10-16T06:06:40;101031.72;;;17.37;100.00
48846;BME280;34665;51.886;5.436;2022-10-16T06:09:06;101035.84;;;17.40;100.00
48846;BME280;34665;51.886;5.436;2022-10-16T06:11:33;101048.84;;;17.67;100.00
48846;BME280;34665;51.886;5.436;2022-10-16T06:14:00;101041.34;;;17.45;100.00
48846;BME280;34665;51.886;5.436;2022-10-16T06:16:28;101036.38;;;17.66;100.00
48846;BME280;34665;51.886;5.436;2022-10-16T06:18:55;101052.50;;;17.60;100.00
48846;BME280;34665;51.886;5.436;2022-10-16T06:21:23;101056.88;;;17.49;100.00
48846;BME280;34665;51.886;5.436;2022-10-16T06:23:53;101060.03;;;17.58;100.00
48846;BME280;34665;51.886;5.436;2022-10-16T06:26:21;101062.75;;;17.46;100.00
48846;BME280;34665;51.886;5.436;2022-10-16T06:28:47;101067.28;;;17.82;100.00
48846;BME280;34665;51.886;5.436;2022-10-16T06:31:13;101077.59;;;17.97;100.00
48846;BME280;34665;51.886;5.436;2022-10-16T06:33:39;101080.09;;;17.86;100.00
48846;BME280;34665;51.886;5.436;2022-10-16T06:36:08;101075.31;;;17.65;100.00
48846;BME280;34665;51.886;5.436;2022-10-16T06:38:35;101083.97;;;17.78;100.00
48846;BME280;34665;51.886;5.436;2022-10-16T06:41:01;101082.78;;;17.86;100.00
48846;BME280;34665;51.886;5.436;2022-10-16T06:43:28;101083.75;;;17.92;100.00
48846;BME280;34665;51.886;5.436;2022-10-16T06:45:58;101088.19;;;18.10;100.00
48846;BME280;34665;51.886;5.436;2022-10-16T06:48:24;101091.13;;;17.85;100.00
48846;BME280;34665;51.886;5.436;2022-10-16T06:51:05;101094.19;;;17.88;100.00
48846;BME280;34665;51.886;5.436;2022-10-16T06:53:34;101093.41;;;17.64;100.00
48846;BME280;34665;51.886;5.436;2022-10-16T06:56:13;101106.31;;;17.86;100.00
48846;BME280;34665;51.886;5.436;2022-10-16T06:58:40;101111.69;;;17.98;100.00
48846;BME280;34665;51.886;5.436;2022-10-16T07:01:07;101114.81;;;17.66;100.00
48846;BME280;34665;51.886;5.436;2022-10-16T07:03:39;101129.75;;;17.68;100.00
48846;BME280;34665;51.886;5.436;2022-10-16T07:06:06;101130.69;;;17.62;100.00
48846;BME280;34665;51.886;5.436;2022-10-16T07:08:34;101133.34;;;17.98;100.00
48846;BME280;34665;51.886;5.436;2022-10-16T07:11:12;101149.25;;;18.18;100.00
48846;BME280;34665;51.886;5.436;2022-10-16T07:13:40;101153.34;;;17.97;100.00
48846;BME280;34665;51.886;5.436;2022-10-16T07:16:11;101154.53;;;18.01;100.00
48846;BME280;34665;51.886;5.436;2022-10-16T07:18:38;101152.88;;;18.24;100.00
48846;BME280;34665;51.886;5.436;2022-10-16T07:21:09;101164.91;;;18.04;100.00
48846;BME280;34665;51.886;5.436;2022-10-16T07:23:36;101162.25;;;18.33;100.00
48846;BME280;34665;51.886;5.436;2022-10-16T07:26:02;101170.88;;;18.59;100.00
48846;BME280;34665;51.886;5.436;2022-10-16T07:28:29;101167.09;;;18.89;100.00
48846;BME280;34665;51.886;5.436;2022-10-16T07:30:55;101184.91;;;18.56;100.00
48846;BME280;34665;51.886;5.436;2022-10-16T07:33:21;101184.25;;;18.48;100.00
48846;BME280;34665;51.886;5.436;2022-10-16T07:35:52;101196.31;;;18.87;100.00
48846;BME280;34665;51.886;5.436;2022-10-16T07:38:18;101197.63;;;18.55;100.00
48846;BME280;34665;51.886;5.436;2022-10-16T07:40:44;101189.13;;;18.63;100.00
48846;BME280;34665;51.886;5.436;2022-10-16T07:43:10;101190.88;;;18.99;100.00
48846;BME280;34665;51.886;5.436;2022-10-16T07:45:37;101194.03;;;19.08;100.00
48846;BME280;34665;51.886;5.436;2022-10-16T07:48:03;101187.78;;;19.07;100.00
48846;BME280;34665;51.886;5.436;2022-10-16T07:50:29;101199.63;;;18.89;100.00
48846;BME280;34665;51.886;5.436;2022-10-16T07:52:54;101202.72;;;18.81;100.00
48846;BME280;34665;51.886;5.436;2022-10-16T07:55:20;101205.84;;;19.01;100.00
48846;BME280;34665;51.886;5.436;2022-10-16T07:57:45;101210.38;;;18.84;100.00
48846;BME280;34665;51.886;5.436;2022-10-16T08:00:11;101211.34;;;19.06;100.00
48846;BME280;34665;51.886;5.436;2022-10-16T08:02:41;101216.25;;;19.39;100.00
48846;BME280;34665;51.886;5.436;2022-10-16T08:05:07;101215.06;;;19.17;100.00
48846;BME280;34665;51.886;5.436;2022-10-16T08:07:33;101226.91;;;19.28;100.00
48846;BME280;34665;51.886;5.436;2022-10-16T08:09:59;101229.69;;;19.16;100.00
48846;BME280;34665;51.886;5.436;2022-10-16T08:12:25;101223.47;;;19.50;100.00
48846;BME280;34665;51.886;5.436;2022-10-16T08:14:50;101239.09;;;19.77;100.00
48846;BME280;34665;51.886;5.436;2022-10-16T08:17:16;101245.03;;;19.57;100.00
48846;BME280;34665;51.886;5.436;2022-10-16T08:19:45;101250.09;;;20.22;100.00
48846;BME280;34665;51.886;5.436;2022-10-16T08:22:11;101250.59;;;20.18;100.00
48846;BME280;34665;51.886;5.436;2022-10-16T08:24:37;101252.72;;;21.00;100.00
48846;BME280;34665;51.886;5.436;2022-10-16T08:27:02;101260.22;;;20.71;100.00
48846;BME280;34665;51.886;5.436;2022-10-16T08:29:28;101257.00;;;21.51;100.00
48846;BME280;34665;51.886;5.436;2022-10-16T08:31:54;101254.09;;;21.63;100.00
48846;BME280;34665;51.886;5.436;2022-10-16T08:34:19;101270.78;;;21.72;100.00
48846;BME280;34665;51.886;5.436;2022-10-16T08:36:45;101267.50;;;22.56;100.00
48846;BME280;34665;51.886;5.436;2022-10-16T08:39:12;101273.88;;;22.29;100.00
48846;BME280;34665;51.886;5.436;2022-10-16T08:44:30;101286.97;;;22.90;100.00
48846;BME280;34665;51.886;5.436;2022-10-16T08:47:23;101286.94;;;22.80;100.00
48846;BME280;34665;51.886;5.436;2022-10-16T08:50:14;101299.41;;;23.55;100.00
48846;BME280;34665;51.886;5.436;2022-10-16T08:52:44;101299.00;;;24.50;100.00
48846;BME280;34665;51.886;5.436;2022-10-16T08:55:41;101313.03;;;23.91;100.00
48846;BME280;34665;51.886;5.436;2022-10-16T08:58:15;101311.97;;;24.08;100.00
48846;BME280;34665;51.886;5.436;2022-10-16T09:00:42;101316.34;;;24.04;100.00
48846;BME280;34665;51.886;5.436;2022-10-16T09:08:46;101326.84;;;25.73;100.00
48846;BME280;34665;51.886;5.436;2022-10-16T09:11:30;101319.53;;;25.63;100.00
48846;BME280;34665;51.886;5.436;2022-10-16T09:14:28;101326.00;;;25.33;100.00
48846;BME280;34665;51.886;5.436;2022-10-16T09:17:21;101329.25;;;24.85;100.00
48846;BME280;34665;51.886;5.436;2022-10-16T09:19:56;101321.06;;;25.75;100.00
48846;BME280;34665;51.886;5.436;2022-10-16T09:22:27;101329.88;;;26.31;100.00
48846;BME280;34665;51.886;5.436;2022-10-16T09:24:55;101335.41;;;26.99;100.00
48846;BME280;34665;51.886;5.436;2022-10-16T09:27:26;101342.56;;;26.22;100.00
48846;BME280;34665;51.886;5.436;2022-10-16T09:29:52;101345.59;;;25.56;100.00
48846;BME280;34665;51.886;5.436;2022-10-16T09:32:20;101354.38;;;26.46;100.00
48846;BME280;34665;51.886;5.436;2022-10-16T09:34:49;101343.53;;;24.66;100.00
48846;BME280;34665;51.886;5.436;2022-10-16T09:37:19;101350.06;;;26.11;100.00
48846;BME280;34665;51.886;5.436;2022-10-16T09:39:54;101350.69;;;25.23;100.00
48846;BME280;34665;51.886;5.436;2022-10-16T09:42:27;101352.94;;;25.10;100.00
48846;BME280;34665;51.886;5.436;2022-10-16T09:44:56;101349.59;;;26.57;100.00
48846;BME280;34665;51.886;5.436;2022-10-16T09:47:23;101356.31;;;27.14;100.00
48846;BME280;34665;51.886;5.436;2022-10-16T09:50:05;101365.06;;;27.93;97.27
48846;BME280;34665;51.886;5.436;2022-10-16T09:52:40;101366.09;;;27.77;94.32
48846;BME280;34665;51.886;5.436;2022-10-16T09:55:13;101365.44;;;27.47;95.97
48846;BME280;34665;51.886;5.436;2022-10-16T09:57:53;101375.03;;;27.50;94.85
48846;BME280;34665;51.886;5.436;2022-10-16T10:00:20;101365.81;;;27.02;98.95
48846;BME280;34665;51.886;5.436;2022-10-16T10:02:45;101375.13;;;27.64;96.62
48846;BME280;34665;51.886;5.436;2022-10-16T10:08:14;101379.78;;;28.16;87.49
48846;BME280;34665;51.886;5.436;2022-10-16T10:10:43;101384.94;;;28.93;85.96
48846;BME280;34665;51.886;5.436;2022-10-16T10:13:19;101370.59;;;28.96;81.52
48846;BME280;34665;51.886;5.436;2022-10-16T10:15:45;101381.91;;;28.80;80.97
48846;BME280;34665;51.886;5.436;2022-10-16T10:18:21;101371.84;;;29.12;79.53
48846;BME280;34665;51.886;5.436;2022-10-16T10:20:59;101378.63;;;28.64;80.30
48846;BME280;34665;51.886;5.436;2022-10-16T10:23:27;101389.63;;;28.64;81.37
48846;BME280;34665;51.886;5.436;2022-10-16T10:28:46;101384.88;;;29.34;74.54
48846;BME280;34665;51.886;5.436;2022-10-16T10:31:34;101388.53;;;30.12;69.28
48846;BME280;34665;51.886;5.436;2022-10-16T10:34:35;101399.53;;;31.78;62.01
48846;BME280;34665;51.886;5.436;2022-10-16T10:37:10;101391.28;;;30.75;60.72
48846;BME280;34665;51.886;5.436;2022-10-16T10:39:51;101398.00;;;32.07;59.18
48846;BME280;34665;51.886;5.436;2022-10-16T10:42:30;101409.81;;;32.42;56.10
48846;BME280;34665;51.886;5.436;2022-10-16T10:45:18;101410.41;;;31.56;54.23
48846;BME280;34665;51.886;5.436;2022-10-16T10:50:58;101407.91;;;30.53;59.49
48846;BME280;34665;51.886;5.436;2022-10-16T10:53:43;101404.44;;;29.93;61.14
48846;BME280;34665;51.886;5.436;2022-10-16T10:56:42;101409.00;;;30.43;59.51
48846;BME280;34665;51.886;5.436;2022-10-16T10:59:32;101415.66;;;32.88;51.91
48846;BME280;34665;51.886;5.436;2022-10-16T11:07:32;101414.66;;;33.36;47.62
48846;BME280;34665;51.886;5.436;2022-10-16T11:10:16;101411.88;;;31.80;50.78
48846;BME280;34665;51.886;5.436;2022-10-16T11:12:44;101417.56;;;28.99;57.20
48846;BME280;34665;51.886;5.436;2022-10-16T11:15:31;101408.66;;;30.85;54.34
48846;BME280;34665;51.886;5.436;2022-10-16T11:18:05;101426.50;;;31.37;51.96
48846;BME280;34665;51.886;5.436;2022-10-16T11:20:40;101422.22;;;28.71;56.82
48846;BME280;34665;51.886;5.436;2022-10-16T11:23:18;101413.72;;;29.74;54.77
48846;BME280;34665;51.886;5.436;2022-10-16T11:25:48;101434.94;;;31.31;49.90
48846;BME280;34665;51.886;5.436;2022-10-16T11:28:18;101418.81;;;29.81;53.56
48846;BME280;34665;51.886;5.436;2022-10-16T11:30:52;101418.72;;;29.72;54.12
48846;BME280;34665;51.886;5.436;2022-10-16T11:33:37;101421.84;;;30.56;53.41
48846;BME280;34665;51.886;5.436;2022-10-16T11:44:30;101437.94;;;29.12;56.18
48846;BME280;34665;51.886;5.436;2022-10-16T11:49:31;101430.19;;;30.65;51.61
48846;BME280;34665;51.886;5.436;2022-10-16T11:55:16;101455.41;;;33.14;44.90
48846;BME280;34665;51.886;5.436;2022-10-16T11:57:50;101454.97;;;32.64;44.67
48846;BME280;34665;51.886;5.436;2022-10-16T12:05:58;101469.38;;;33.69;41.27
48846;BME280;34665;51.886;5.436;2022-10-16T12:08:28;101461.50;;;34.26;40.94
48846;BME280;34665;51.886;5.436;2022-10-16T12:11:06;101450.41;;;34.26;39.57
48846;BME280;34665;51.886;5.436;2022-10-16T12:13:38;101469.59;;;33.33;40.68
48846;BME280;34665;51.886;5.436;2022-10-16T12:18:40;101457.56;;;34.14;40.28
48846;BME280;34665;51.886;5.436;2022-10-16T12:21:06;101468.34;;;33.95;39.68
48846;BME280;34665;51.886;5.436;2022-10-16T12:23:37;101456.47;;;34.78;39.05
48846;BME280;34665;51.886;5.436;2022-10-16T12:26:04;101457.69;;;33.12;40.85
48846;BME280;34665;51.886;5.436;2022-10-16T12:28:32;101457.25;;;33.73;40.38
48846;BME280;34665;51.886;5.436;2022-10-16T12:31:03;101459.50;;;35.92;37.63
48846;BME280;34665;51.886;5.436;2022-10-16T12:33:32;101462.38;;;35.67;37.09
48846;BME280;34665;51.886;5.436;2022-10-16T12:36:01;101465.69;;;35.44;37.30
48846;BME280;34665;51.886;5.436;2022-10-16T12:38:30;101469.72;;;36.16;38.04
48846;BME280;34665;51.886;5.436;2022-10-16T12:41:00;101479.75;;;36.21;36.27
48846;BME280;34665;51.886;5.436;2022-10-16T12:43:45;101467.06;;;36.52;36.11
48846;BME280;34665;51.886;5.436;2022-10-16T12:48:43;101470.28;;;36.22;36.36
48846;BME280;34665;51.886;5.436;2022-10-16T12:54:18;101472.56;;;36.03;35.35
48846;BME280;34665;51.886;5.436;2022-10-16T12:57:05;101460.56;;;34.22;36.60
48846;BME280;34665;51.886;5.436;2022-10-16T12:59:43;101466.59;;;34.24;36.43
48846;BME280;34665;51.886;5.436;2022-10-16T13:07:54;101465.63;;;34.66;35.27
48846;BME280;34665;51.886;5.436;2022-10-16T13:10:33;101463.00;;;32.87;37.83
48846;BME280;34665;51.886;5.436;2022-10-16T13:13:41;101462.84;;;32.53;38.75
48846;BME280;34665;51.886;5.436;2022-10-16T13:21:38;101462.19;;;32.47;42.04
48846;BME280;34665;51.886;5.436;2022-10-16T13:29:53;101471.34;;;33.47;40.16
48846;BME280;34665;51.886;5.436;2022-10-16T13:32:24;101484.47;;;34.60;38.13
48846;BME280;34665;51.886;5.436;2022-10-16T13:34:50;101479.41;;;34.62;38.66
48846;BME280;34665;51.886;5.436;2022-10-16T13:37:22;101482.41;;;35.19;36.70
48846;BME280;34665;51.886;5.436;2022-10-16T13:39:48;101476.59;;;35.37;37.05
48846;BME280;34665;51.886;5.436;2022-10-16T13:42:26;101483.28;;;35.60;36.52
48846;BME280;34665;51.886;5.436;2022-10-16T13:44:54;101484.72;;;33.15;39.93
48846;BME280;34665;51.886;5.436;2022-10-16T13:47:28;101473.97;;;31.65;43.02
48846;BME280;34665;51.886;5.436;2022-10-16T13:50:01;101473.84;;;31.03;45.45
48846;BME280;34665;51.886;5.436;2022-10-16T13:52:27;101464.06;;;31.73;44.61
48846;BME280;34665;51.886;5.436;2022-10-16T13:54:54;101464.72;;;31.61;45.03
48846;BME280;34665;51.886;5.436;2022-10-16T13:57:22;101465.63;;;32.92;41.98
48846;BME280;34665;51.886;5.436;2022-10-16T13:59:47;101474.75;;;33.86;40.61
48846;BME280;34665;51.886;5.436;2022-10-16T14:04:51;101483.19;;;34.11;40.37
48846;BME280;34665;51.886;5.436;2022-10-16T14:07:25;101476.84;;;32.57;41.94
48846;BME280;34665;51.886;5.436;2022-10-16T14:09:53;101477.28;;;33.07;41.88
48846;BME280;34665;51.886;5.436;2022-10-16T14:12:21;101483.63;;;31.85;43.68
48846;BME280;34665;51.886;5.436;2022-10-16T14:14:50;101472.97;;;32.23;41.91
48846;BME280;34665;51.886;5.436;2022-10-16T14:17:26;101474.50;;;31.94;42.28
48846;BME280;34665;51.886;5.436;2022-10-16T14:19:54;101479.19;;;32.02;41.84